Time;durP1;ratioP1;P1;durP2;ratioP2;P2;SDS_P1;SDS_P2;PMS_P1;PMS_P2;Temp;Humidity;BMP_temperature;BMP_pressure;BME280_temperature;BME280_humidity;BME280_pressure;Samples;Min_cycle;Max_cycle;Signal;HPM_P1;HPM_P2
2021/07/25 00:02:02;;;;;;;25.37;20.80;;;;;;;;;;5054146;28;20412;-79
2021/07/25 00:04:31;;;;;;;33.73;23.10;;;;;;;;;;5053549;28;20439;-79
2021/07/25 00:06:57;;;;;;;27.53;21.20;;;;;;;;;;5055310;28;20386;-79
2021/07/25 00:09:23;;;;;;;25.77;20.10;;;;;;;;;;5055222;28;20408;-78
2021/07/25 00:11:49;;;;;;;25.90;21.20;;;;;;;;;;5055188;28;20758;-79
2021/07/25 00:14:15;;;;;;;26.50;21.80;;;;;;;;;;5054837;28;20506;-80
2021/07/25 00:16:43;;;;;;;28.60;21.40;;;;;;;;;;5055135;28;20424;-79
2021/07/25 00:19:12;;;;;;;26.17;20.43;;;;;;;;;;5054857;28;20769;-78
2021/07/25 00:21:38;;;;;;;19.57;16.93;;;;;;;;;;5054716;28;20495;-80
2021/07/25 00:24:04;;;;;;;27.00;20.97;;;;;;;;;;5054448;28;20412;-79
2021/07/25 00:26:38;;;;;;;22.43;19.67;;;;;;;;;;5054925;28;20801;-78
2021/07/25 00:29:08;;;;;;;29.23;21.93;;;;;;;;;;5054774;28;20772;-79
2021/07/25 00:31:34;;;;;;;28.50;18.10;;;;;;;;;;5054756;28;20420;-79
2021/07/25 00:34:02;;;;;;;21.10;18.80;;;;;;;;;;5054296;28;20439;-79
2021/07/25 00:36:28;;;;;;;24.50;19.83;;;;;;;;;;5053416;28;20420;-78
2021/07/25 00:38:54;;;;;;;25.17;20.80;;;;;;;;;;5055059;28;20387;-79
2021/07/25 00:41:20;;;;;;;23.17;19.47;;;;;;;;;;5054149;28;20472;-78
2021/07/25 00:43:47;;;;;;;21.90;19.33;;;;;;;;;;5052920;28;20428;-79
2021/07/25 00:46:13;;;;;;;20.17;18.17;;;;;;;;;;5054406;28;20774;-79
2021/07/25 00:48:39;;;;;;;28.33;20.37;;;;;;;;;;5053421;28;20421;-80
2021/07/25 00:51:06;;;;;;;24.30;18.47;;;;;;;;;;5054552;28;20382;-80
2021/07/25 00:53:35;;;;;;;20.73;17.53;;;;;;;;;;5054007;28;20896;-79
2021/07/25 00:56:04;;;;;;;23.13;18.30;;;;;;;;;;5054166;28;20431;-80
2021/07/25 00:58:30;;;;;;;21.33;17.50;;;;;;;;;;5053422;28;20834;-78
2021/07/25 01:00:57;;;;;;;23.00;17.97;;;;;;;;;;5054306;28;20495;-79
2021/07/25 01:03:41;;;;;;;20.80;18.70;;;;;;;;;;5053975;28;20415;-80
2021/07/25 01:06:22;;;;;;;20.90;17.80;;;;;;;;;;5053745;28;20782;-78
2021/07/25 01:08:53;;;;;;;29.87;18.47;;;;;;;;;;5054058;28;20496;-80
2021/07/25 01:11:20;;;;;;;22.10;17.57;;;;;;;;;;5054052;28;20378;-79
2021/07/25 01:13:52;;;;;;;23.30;17.57;;;;;;;;;;5052292;28;20477;-80
2021/07/25 01:16:19;;;;;;;22.10;16.60;;;;;;;;;;5053623;28;20952;-80
2021/07/25 01:18:49;;;;;;;24.53;17.07;;;;;;;;;;5053742;28;20408;-79
2021/07/25 01:21:16;;;;;;;19.50;17.07;;;;;;;;;;5053699;28;20467;-79
2021/07/25 01:23:42;;;;;;;20.03;16.93;;;;;;;;;;5053678;28;20411;-79
2021/07/25 01:26:09;;;;;;;20.77;18.00;;;;;;;;;;5053480;28;20411;-80
2021/07/25 01:28:36;;;;;;;19.53;16.47;;;;;;;;;;5053486;28;20390;-80
2021/07/25 01:31:07;;;;;;;23.87;17.00;;;;;;;;;;5053448;28;20394;-80
2021/07/25 01:33:34;;;;;;;27.43;15.77;;;;;;;;;;5053241;28;20489;-79
2021/07/25 01:36:01;;;;;;;18.97;15.90;;;;;;;;;;5053471;28;20443;-80
2021/07/25 01:38:28;;;;;;;19.07;15.10;;;;;;;;;;5053332;28;20762;-80
2021/07/25 01:41:13;;;;;;;19.37;15.43;;;;;;;;;;5053365;28;20802;-80
2021/07/25 01:43:40;;;;;;;19.67;15.40;;;;;;;;;;5051703;28;20395;-79
2021/07/25 01:46:06;;;;;;;19.67;15.10;;;;;;;;;;5053551;28;20428;-79
2021/07/25 01:48:33;;;;;;;20.10;14.27;;;;;;;;;;5053298;28;20482;-78
2021/07/25 01:50:59;;;;;;;16.60;14.13;;;;;;;;;;5053079;28;20456;-79
2021/07/25 01:53:25;;;;;;;16.70;13.63;;;;;;;;;;5051214;28;20420;-80
2021/07/25 01:55:51;;;;;;;16.47;13.50;;;;;;;;;;5052054;28;20459;-80
2021/07/25 01:58:17;;;;;;;17.27;14.00;;;;;;;;;;5053220;28;20779;-80
2021/07/25 02:00:43;;;;;;;16.93;12.53;;;;;;;;;;5051922;28;20449;-79
2021/07/25 02:03:09;;;;;;;13.90;12.40;;;;;;;;;;5052934;28;20386;-80
2021/07/25 02:05:36;;;;;;;17.40;13.27;;;;;;;;;;5051737;28;20489;-81
2021/07/25 02:08:02;;;;;;;17.63;13.40;;;;;;;;;;5051911;28;20520;-80
2021/07/25 02:10:28;;;;;;;17.20;12.70;;;;;;;;;;5053198;28;20914;-80
2021/07/25 02:12:54;;;;;;;14.00;11.70;;;;;;;;;;5052864;28;20398;-80
2021/07/25 02:15:20;;;;;;;14.37;11.90;;;;;;;;;;5053132;28;20432;-79
2021/07/25 02:17:46;;;;;;;13.40;11.23;;;;;;;;;;5051698;28;20447;-80
2021/07/25 02:20:12;;;;;;;13.63;10.83;;;;;;;;;;5053030;28;20779;-79
2021/07/25 02:22:38;;;;;;;19.00;13.30;;;;;;;;;;5052826;28;20404;-79
2021/07/25 02:25:05;;;;;;;12.53;11.30;;;;;;;;;;5052666;28;20439;-78
2021/07/25 02:27:31;;;;;;;11.40;10.23;;;;;;;;;;5053032;28;20407;-79
2021/07/25 02:29:57;;;;;;;15.63;11.07;;;;;;;;;;5052980;28;20382;-79
2021/07/25 02:32:23;;;;;;;20.23;10.67;;;;;;;;;;5053018;28;20387;-80
2021/07/25 02:34:49;;;;;;;18.50;9.73;;;;;;;;;;5052140;28;20428;-81
2021/07/25 02:37:15;;;;;;;14.67;10.73;;;;;;;;;;5052844;28;20925;-80
2021/07/25 02:39:42;;;;;;;13.87;9.60;;;;;;;;;;5052734;28;20434;-78
2021/07/25 02:42:08;;;;;;;12.73;10.80;;;;;;;;;;5052825;28;20386;-79
2021/07/25 02:44:34;;;;;;;17.87;10.30;;;;;;;;;;5052324;28;20432;-80
2021/07/25 02:47:01;;;;;;;15.07;9.77;;;;;;;;;;5052753;28;20386;-78
2021/07/25 02:49:27;;;;;;;11.37;9.23;;;;;;;;;;5052765;28;20481;-81
2021/07/25 02:51:54;;;;;;;12.17;9.57;;;;;;;;;;5052815;28;20422;-81
2021/07/25 02:54:20;;;;;;;16.70;10.13;;;;;;;;;;5052593;28;20492;-78
2021/07/25 02:56:46;;;;;;;12.40;9.40;;;;;;;;;;5052750;28;20411;-79
2021/07/25 02:59:12;;;;;;;10.80;9.40;;;;;;;;;;5052575;28;20468;-79
2021/07/25 03:01:38;;;;;;;11.73;9.00;;;;;;;;;;5052988;28;20423;-79
2021/07/25 03:04:04;;;;;;;15.00;9.40;;;;;;;;;;5054970;28;20411;-80
2021/07/25 03:06:30;;;;;;;11.83;8.57;;;;;;;;;;5056496;28;20400;-79
2021/07/25 03:08:56;;;;;;;12.80;8.83;;;;;;;;;;5056343;28;20382;-80
2021/07/25 03:11:22;;;;;;;13.03;8.50;;;;;;;;;;5056525;28;20408;-79
2021/07/25 03:13:48;;;;;;;9.90;7.00;;;;;;;;;;5056002;28;20419;-78
2021/07/25 03:16:14;;;;;;;12.17;8.50;;;;;;;;;;5056429;28;20432;-79
2021/07/25 03:18:40;;;;;;;15.20;9.90;;;;;;;;;;5054918;28;20752;-78
2021/07/25 03:21:06;;;;;;;18.73;10.13;;;;;;;;;;5056036;28;20434;-78
2021/07/25 03:23:33;;;;;;;12.90;10.60;;;;;;;;;;5055863;28;20831;-81
2021/07/25 03:25:59;;;;;;;25.67;9.43;;;;;;;;;;5056239;28;20530;-79
2021/07/25 03:28:25;;;;;;;14.63;10.10;;;;;;;;;;5054827;28;20390;-78
2021/07/25 03:30:51;;;;;;;12.97;9.20;;;;;;;;;;5055979;28;20416;-80
2021/07/25 03:33:18;;;;;;;9.87;8.43;;;;;;;;;;5055236;28;20423;-78
2021/07/25 03:35:44;;;;;;;16.17;9.07;;;;;;;;;;5055775;28;20424;-78
2021/07/25 03:38:10;;;;;;;11.33;9.30;;;;;;;;;;5055791;28;20404;-79
2021/07/25 03:40:37;;;;;;;12.30;8.23;;;;;;;;;;5055762;28;20520;-78
2021/07/25 03:43:03;;;;;;;15.50;10.27;;;;;;;;;;5054055;28;20401;-80
2021/07/25 03:45:29;;;;;;;12.90;8.27;;;;;;;;;;5055325;28;20455;-80
2021/07/25 03:47:55;;;;;;;10.60;9.00;;;;;;;;;;5054401;28;20415;-80
2021/07/25 03:50:21;;;;;;;17.80;8.40;;;;;;;;;;5055776;28;20409;-80
2021/07/25 03:52:47;;;;;;;12.43;10.10;;;;;;;;;;5056628;28;20387;-79
2021/07/25 03:55:16;;;;;;;10.60;8.17;;;;;;;;;;5057844;28;20771;-79
2021/07/25 03:57:42;;;;;;;9.87;7.80;;;;;;;;;;5055575;28;20444;-80
2021/07/25 04:00:09;;;;;;;13.20;8.80;;;;;;;;;;5055344;28;20467;-80
2021/07/25 04:02:34;;;;;;;12.40;8.37;;;;;;;;;;5055211;28;20390;-79
2021/07/25 04:05:00;;;;;;;9.27;8.40;;;;;;;;;;5054806;28;20786;-79
2021/07/25 04:07:26;;;;;;;8.93;7.43;;;;;;;;;;5055028;28;20474;-80
2021/07/25 04:09:52;;;;;;;12.30;8.13;;;;;;;;;;5055099;28;20420;-80
2021/07/25 04:12:18;;;;;;;10.53;8.37;;;;;;;;;;5055112;28;20386;-79
2021/07/25 04:14:45;;;;;;;8.43;7.53;;;;;;;;;;5053809;28;20436;-80
2021/07/25 04:17:11;;;;;;;11.93;10.43;;;;;;;;;;5055079;28;20404;-79
2021/07/25 04:19:37;;;;;;;13.63;11.00;;;;;;;;;;5054890;28;20959;-80
2021/07/25 04:22:03;;;;;;;15.10;11.13;;;;;;;;;;5055098;28;20405;-79
2021/07/25 04:24:29;;;;;;;11.63;10.40;;;;;;;;;;5053246;28;20933;-79
2021/07/25 04:26:55;;;;;;;13.10;11.80;;;;;;;;;;5054888;28;20892;-80
2021/07/25 04:29:21;;;;;;;10.47;9.33;;;;;;;;;;5054691;28;20449;-78
2021/07/25 04:31:48;;;;;;;10.53;9.30;;;;;;;;;;5054549;28;20420;-80
2021/07/25 04:34:14;;;;;;;9.00;8.00;;;;;;;;;;5054224;28;20382;-79
2021/07/25 04:36:42;;;;;;;11.63;8.07;;;;;;;;;;5054451;28;20453;-80
2021/07/25 04:39:09;;;;;;;14.93;7.07;;;;;;;;;;5054480;28;20423;-79
2021/07/25 04:41:40;;;;;;;10.50;7.60;;;;;;;;;;5054376;28;20776;-80
2021/07/25 04:44:21;;;;;;;8.43;6.87;;;;;;;;;;5052710;28;20773;-79
2021/07/25 04:46:48;;;;;;;8.87;7.97;;;;;;;;;;5054443;28;20930;-80
2021/07/25 04:49:15;;;;;;;13.23;8.60;;;;;;;;;;5054486;28;20375;-80
2021/07/25 04:51:42;;;;;;;12.90;7.37;;;;;;;;;;5052901;28;20436;-79
2021/07/25 04:54:18;;;;;;;8.50;7.23;;;;;;;;;;5053987;28;20409;-78
2021/07/25 04:56:57;;;;;;;12.90;8.10;;;;;;;;;;5054184;28;20738;-80
2021/07/25 04:59:27;;;;;;;10.87;7.60;;;;;;;;;;5054199;28;20427;-80
2021/07/25 05:01:58;;;;;;;8.57;6.83;;;;;;;;;;5054303;28;20523;-79
2021/07/25 05:04:26;;;;;;;8.03;7.10;;;;;;;;;;5053531;28;20479;-79
2021/07/25 05:06:52;;;;;;;12.50;7.30;;;;;;;;;;5054214;28;20827;-78
2021/07/25 05:09:18;;;;;;;8.37;7.57;;;;;;;;;;5053997;28;20920;-80
2021/07/25 05:11:50;;;;;;;13.67;7.50;;;;;;;;;;5054012;28;20416;-79
2021/07/25 05:14:26;;;;;;;10.77;6.70;;;;;;;;;;5053582;28;20439;-79
2021/07/25 05:17:01;;;;;;;11.20;7.30;;;;;;;;;;5054203;28;20902;-78
2021/07/25 05:19:29;;;;;;;10.07;6.90;;;;;;;;;;5052292;28;20411;-80
2021/07/25 05:22:05;;;;;;;9.60;6.80;;;;;;;;;;5052535;28;20387;-79
2021/07/25 05:24:34;;;;;;;14.23;7.10;;;;;;;;;;5053429;28;20409;-80
2021/07/25 05:27:01;;;;;;;12.40;7.20;;;;;;;;;;5053599;28;20423;-79
2021/07/25 05:29:29;;;;;;;8.63;7.13;;;;;;;;;;5052278;28;20431;-79
2021/07/25 05:31:55;;;;;;;10.70;6.83;;;;;;;;;;5052214;28;20424;-79
2021/07/25 05:34:21;;;;;;;9.80;7.63;;;;;;;;;;5053156;28;20447;-80
2021/07/25 05:36:47;;;;;;;8.83;6.30;;;;;;;;;;5053472;28;20495;-78
2021/07/25 05:39:13;;;;;;;13.57;7.07;;;;;;;;;;5053359;28;20427;-78
2021/07/25 05:41:39;;;;;;;7.00;6.30;;;;;;;;;;5053206;28;20387;-78
2021/07/25 05:44:05;;;;;;;11.13;6.73;;;;;;;;;;5052775;28;20755;-80
2021/07/25 05:46:31;;;;;;;11.57;6.17;;;;;;;;;;5051834;28;20942;-80
2021/07/25 05:48:57;;;;;;;7.40;5.77;;;;;;;;;;5053231;28;20424;-79
2021/07/25 05:51:23;;;;;;;7.00;6.13;;;;;;;;;;5053230;28;20905;-80
2021/07/25 05:53:49;;;;;;;12.13;5.60;;;;;;;;;;5051885;28;20403;-78
2021/07/25 05:56:15;;;;;;;8.33;5.57;;;;;;;;;;5053269;28;20805;-79
2021/07/25 05:58:41;;;;;;;11.17;4.70;;;;;;;;;;5053094;28;20416;-78
2021/07/25 06:01:07;;;;;;;8.40;6.00;;;;;;;;;;5052073;28;20449;-78
2021/07/25 06:03:33;;;;;;;6.80;5.80;;;;;;;;;;5052966;28;20839;-77
2021/07/25 06:05:59;;;;;;;7.20;5.00;;;;;;;;;;5052900;28;20422;-79
2021/07/25 06:08:25;;;;;;;12.47;5.80;;;;;;;;;;5051773;28;20386;-78
2021/07/25 06:10:51;;;;;;;10.00;5.07;;;;;;;;;;5053046;28;20419;-79
2021/07/25 06:13:17;;;;;;;15.93;5.00;;;;;;;;;;5053033;28;20767;-79
2021/07/25 06:15:47;;;;;;;7.00;5.13;;;;;;;;;;5052912;28;20442;-80
2021/07/25 06:18:13;;;;;;;6.93;5.07;;;;;;;;;;5052973;28;20418;-79
2021/07/25 06:20:39;;;;;;;6.47;4.40;;;;;;;;;;5052839;28;20916;-79
2021/07/25 06:23:06;;;;;;;5.60;4.27;;;;;;;;;;5052704;28;20458;-79
2021/07/25 06:25:33;;;;;;;7.27;4.53;;;;;;;;;;5052682;28;20424;-79
2021/07/25 06:28:03;;;;;;;6.00;4.77;;;;;;;;;;5052746;28;20448;-79
2021/07/25 06:30:29;;;;;;;6.40;4.80;;;;;;;;;;5052834;28;20440;-79
2021/07/25 06:33:01;;;;;;;7.23;4.60;;;;;;;;;;5052353;28;20457;-80
2021/07/25 06:35:29;;;;;;;7.23;4.60;;;;;;;;;;5052641;28;20402;-79
2021/07/25 06:37:56;;;;;;;6.73;3.90;;;;;;;;;;5053636;28;20407;-80
2021/07/25 06:40:22;;;;;;;7.10;4.87;;;;;;;;;;5056548;28;20856;-80
2021/07/25 06:42:48;;;;;;;5.93;4.20;;;;;;;;;;5055035;28;20447;-80
2021/07/25 06:45:17;;;;;;;6.63;4.13;;;;;;;;;;5055233;28;20414;-81
2021/07/25 06:48:01;;;;;;;5.93;4.33;;;;;;;;;;5056470;28;20489;-78
2021/07/25 06:50:28;;;;;;;5.43;4.37;;;;;;;;;;5056599;28;20491;-80
2021/07/25 06:52:56;;;;;;;6.63;4.27;;;;;;;;;;5056002;28;20413;-79
2021/07/25 06:55:23;;;;;;;7.43;4.43;;;;;;;;;;5056500;28;20916;-81
2021/07/25 06:57:49;;;;;;;8.27;4.57;;;;;;;;;;5055182;28;20427;-79
2021/07/25 07:00:15;;;;;;;6.73;4.27;;;;;;;;;;5056394;28;20964;-79
2021/07/25 07:02:59;;;;;;;5.97;3.90;;;;;;;;;;5056165;28;20408;-81
2021/07/25 07:05:29;;;;;;;5.83;4.70;;;;;;;;;;5056083;28;20525;-80
2021/07/25 07:07:56;;;;;;;4.43;3.70;;;;;;;;;;5056372;28;20760;-80
2021/07/25 07:10:25;;;;;;;6.20;3.60;;;;;;;;;;5055396;28;20498;-81
2021/07/25 07:12:51;;;;;;;6.50;4.17;;;;;;;;;;5054758;28;20428;-80
2021/07/25 07:15:18;;;;;;;5.00;3.67;;;;;;;;;;5056082;28;20447;-79
2021/07/25 07:17:44;;;;;;;6.43;4.37;;;;;;;;;;5056023;28;20407;-80
2021/07/25 07:20:11;;;;;;;7.53;3.40;;;;;;;;;;5056063;28;20459;-81
2021/07/25 07:22:38;;;;;;;6.00;3.47;;;;;;;;;;5054734;28;20416;-80
2021/07/25 07:25:05;;;;;;;6.60;4.30;;;;;;;;;;5055553;28;20408;-81
2021/07/25 07:27:31;;;;;;;5.00;4.10;;;;;;;;;;5054614;28;20395;-80
2021/07/25 07:29:57;;;;;;;6.30;3.70;;;;;;;;;;5054413;28;20423;-79
2021/07/25 07:32:23;;;;;;;7.70;3.50;;;;;;;;;;5054286;28;20509;-80
2021/07/25 07:34:49;;;;;;;5.60;3.23;;;;;;;;;;5055282;28;20428;-77
2021/07/25 07:37:16;;;;;;;4.90;3.53;;;;;;;;;;5055432;28;20798;-76
2021/07/25 07:39:42;;;;;;;5.40;4.10;;;;;;;;;;5055729;28;20808;-75
2021/07/25 07:42:09;;;;;;;4.47;3.20;;;;;;;;;;5055768;28;20468;-79
2021/07/25 07:44:35;;;;;;;4.70;3.37;;;;;;;;;;5055063;28;20427;-78
2021/07/25 07:47:01;;;;;;;3.53;3.00;;;;;;;;;;5054099;28;20414;-78
2021/07/25 07:49:27;;;;;;;4.27;3.07;;;;;;;;;;5054138;28;21343;-77
2021/07/25 07:51:53;;;;;;;7.40;3.60;;;;;;;;;;5055454;28;20391;-76
2021/07/25 07:54:19;;;;;;;4.50;2.83;;;;;;;;;;5054997;28;20398;-77
2021/07/25 07:56:45;;;;;;;3.50;3.13;;;;;;;;;;5055306;28;20469;-79
2021/07/25 07:59:11;;;;;;;3.43;3.13;;;;;;;;;;5055333;28;20503;-78
2021/07/25 08:01:37;;;;;;;5.70;3.50;;;;;;;;;;5055372;28;20492;-78
2021/07/25 08:04:03;;;;;;;4.20;3.30;;;;;;;;;;5054608;28;20416;-78
2021/07/25 08:06:30;;;;;;;3.70;3.30;;;;;;;;;;5055314;28;20419;-80
2021/07/25 08:08:56;;;;;;;3.10;2.80;;;;;;;;;;5055317;28;20408;-78
2021/07/25 08:11:22;;;;;;;4.30;2.40;;;;;;;;;;5054966;28;20916;-79
2021/07/25 08:13:48;;;;;;;6.17;3.30;;;;;;;;;;5054682;28;20491;-79
2021/07/25 08:16:14;;;;;;;8.03;3.43;;;;;;;;;;5055015;28;20494;-77
2021/07/25 08:18:40;;;;;;;4.77;3.10;;;;;;;;;;5054895;28;20466;-77
2021/07/25 08:21:07;;;;;;;4.43;2.83;;;;;;;;;;5054749;28;20464;-77
2021/07/25 08:23:33;;;;;;;4.40;3.23;;;;;;;;;;5054441;28;20497;-77
2021/07/25 08:26:00;;;;;;;3.90;2.90;;;;;;;;;;5055044;28;20959;-77
2021/07/25 08:28:26;;;;;;;5.30;3.27;;;;;;;;;;5054821;28;20754;-74
2021/07/25 08:30:52;;;;;;;6.93;3.73;;;;;;;;;;5054713;28;20775;-77
2021/07/25 08:33:18;;;;;;;4.80;2.50;;;;;;;;;;5054558;28;20419;-76
2021/07/25 08:35:44;;;;;;;4.70;2.60;;;;;;;;;;5054480;28;20477;-76
2021/07/25 08:38:10;;;;;;;3.40;2.83;;;;;;;;;;5054586;28;20412;-76
2021/07/25 08:40:37;;;;;;;7.50;3.00;;;;;;;;;;5054406;28;20458;-73
2021/07/25 08:43:03;;;;;;;3.70;2.80;;;;;;;;;;5054250;28;20893;-77
2021/07/25 08:45:29;;;;;;;4.27;2.87;;;;;;;;;;5054221;28;20432;-76
2021/07/25 08:48:01;;;;;;;3.17;2.87;;;;;;;;;;5053101;28;20794;-75
2021/07/25 08:50:27;;;;;;;3.10;2.80;;;;;;;;;;5054455;28;20454;-74
2021/07/25 08:52:55;;;;;;;4.27;2.67;;;;;;;;;;5053944;28;20503;-75
2021/07/25 08:55:21;;;;;;;4.70;2.70;;;;;;;;;;5054399;28;20431;-77
2021/07/25 08:57:50;;;;;;;5.90;2.67;;;;;;;;;;5052884;28;20798;-75
2021/07/25 09:00:17;;;;;;;4.70;2.50;;;;;;;;;;5053987;28;20464;-74
2021/07/25 09:02:43;;;;;;;2.87;2.43;;;;;;;;;;5053892;28;20416;-73
2021/07/25 09:05:10;;;;;;;4.20;3.20;;;;;;;;;;5053946;28;20459;-73
2021/07/25 09:07:40;;;;;;;4.20;3.13;;;;;;;;;;5054112;28;20416;-73
2021/07/25 09:10:06;;;;;;;3.50;2.73;;;;;;;;;;5054023;28;20885;-76
2021/07/25 09:12:33;;;;;;;3.30;2.97;;;;;;;;;;5053865;28;20412;-74
2021/07/25 09:15:00;;;;;;;8.70;2.60;;;;;;;;;;5053710;28;20426;-74
2021/07/25 09:17:26;;;;;;;5.83;2.73;;;;;;;;;;5053930;28;20414;-72
2021/07/25 09:20:11;;;;;;;8.43;2.63;;;;;;;;;;5053797;28;20887;-75
2021/07/25 09:22:54;;;;;;;2.80;2.60;;;;;;;;;;5053946;28;20400;-76
2021/07/25 09:25:20;;;;;;;4.27;3.03;;;;;;;;;;5053938;28;20440;-75
2021/07/25 09:28:08;;;;;;;5.10;3.10;;;;;;;;;;5053784;28;20400;-77
2021/07/25 09:30:34;;;;;;;3.80;2.53;;;;;;;;;;5053646;28;20464;-76
2021/07/25 09:33:01;;;;;;;5.63;3.07;;;;;;;;;;5053449;28;20410;-76
2021/07/25 09:35:28;;;;;;;6.40;3.10;;;;;;;;;;5053587;28;20539;-77
2021/07/25 09:37:54;;;;;;;2.90;2.60;;;;;;;;;;5053519;28;20396;-76
2021/07/25 09:40:28;;;;;;;4.90;2.90;;;;;;;;;;5053305;28;20467;-77
2021/07/25 09:43:10;;;;;;;2.67;2.27;;;;;;;;;;5053171;28;20432;-76
2021/07/25 09:45:50;;;;;;;6.40;3.27;;;;;;;;;;5053300;28;20948;-77
2021/07/25 09:48:16;;;;;;;3.60;2.77;;;;;;;;;;5053169;28;20404;-76
2021/07/25 09:50:42;;;;;;;8.30;2.60;;;;;;;;;;5053257;28;20422;-75
2021/07/25 09:53:08;;;;;;;3.10;2.37;;;;;;;;;;5053035;28;20416;-75
2021/07/25 09:55:34;;;;;;;6.53;2.63;;;;;;;;;;5053064;28;20428;-75
2021/07/25 09:58:00;;;;;;;4.27;2.97;;;;;;;;;;5053160;28;20446;-75
2021/07/25 10:00:45;;;;;;;4.77;2.83;;;;;;;;;;5052981;28;20517;-76
2021/07/25 10:03:32;;;;;;;5.30;2.70;;;;;;;;;;5052603;28;20911;-76
2021/07/25 10:05:58;;;;;;;4.30;2.40;;;;;;;;;;5052960;28;20417;-75
2021/07/25 10:08:24;;;;;;;4.23;2.33;;;;;;;;;;5052989;28;20901;-75
2021/07/25 10:10:51;;;;;;;5.40;2.77;;;;;;;;;;5053019;28;20499;-76
2021/07/25 10:13:18;;;;;;;5.80;2.37;;;;;;;;;;5051873;28;20422;-76
2021/07/25 10:16:02;;;;;;;3.80;1.97;;;;;;;;;;5052678;28;20492;-75
2021/07/25 10:18:30;;;;;;;2.60;2.40;;;;;;;;;;5052767;28;20786;-77
2021/07/25 10:20:57;;;;;;;3.63;2.33;;;;;;;;;;5052693;28;20513;-77
2021/07/25 10:23:33;;;;;;;3.83;2.30;;;;;;;;;;5052344;28;20886;-76
2021/07/25 10:26:01;;;;;;;8.67;2.67;;;;;;;;;;5052869;28;20480;-76
2021/07/25 10:28:28;;;;;;;4.73;2.53;;;;;;;;;;5052765;28;20419;-75
2021/07/25 10:30:54;;;;;;;3.47;2.37;;;;;;;;;;5053032;28;20404;-75
2021/07/25 10:33:20;;;;;;;2.90;2.47;;;;;;;;;;5052367;28;20419;-76
2021/07/25 10:35:47;;;;;;;3.53;2.20;;;;;;;;;;5052785;28;20435;-74
2021/07/25 10:38:14;;;;;;;3.27;2.20;;;;;;;;;;5052912;28;20802;-74
2021/07/25 10:40:40;;;;;;;2.60;2.00;;;;;;;;;;5052700;28;20470;-74
2021/07/25 10:43:07;;;;;;;2.03;1.70;;;;;;;;;;5052565;28;20889;-75
2021/07/25 10:45:35;;;;;;;2.53;2.07;;;;;;;;;;5052672;28;20481;-74
2021/07/25 10:48:14;;;;;;;3.50;1.97;;;;;;;;;;5052810;28;20805;-75
2021/07/25 10:50:41;;;;;;;2.77;2.20;;;;;;;;;;5052594;28;20777;-75
2021/07/25 10:53:07;;;;;;;3.80;2.07;;;;;;;;;;5052581;28;20409;-75
2021/07/25 10:55:41;;;;;;;2.50;2.23;;;;;;;;;;5052559;28;20489;-75
2021/07/25 10:58:15;;;;;;;3.20;1.90;;;;;;;;;;5053026;28;20502;-74
2021/07/25 11:00:54;;;;;;;2.27;2.00;;;;;;;;;;5052419;28;21010;-75
2021/07/25 11:03:25;;;;;;;2.70;2.40;;;;;;;;;;5052397;28;20794;-75
2021/07/25 11:06:07;;;;;;;2.40;2.20;;;;;;;;;;5052498;28;20447;-75
2021/07/25 11:08:33;;;;;;;3.17;2.00;;;;;;;;;;5052497;28;20475;-75
2021/07/25 11:11:00;;;;;;;4.03;2.00;;;;;;;;;;5052456;28;20419;-74
2021/07/25 11:13:39;;;;;;;2.37;2.17;;;;;;;;;;5052111;28;20916;-74
2021/07/25 11:16:23;;;;;;;3.47;1.70;;;;;;;;;;5052595;28;20432;-77
2021/07/25 11:18:49;;;;;;;4.33;1.67;;;;;;;;;;5052472;28;20880;-76
2021/07/25 11:21:30;;;;;;;2.80;1.97;;;;;;;;;;5052489;28;20460;-76
2021/07/25 11:23:56;;;;;;;4.27;2.10;;;;;;;;;;5053227;28;20993;-74
2021/07/25 11:26:30;;;;;;;7.00;2.83;;;;;;;;;;5056151;28;20404;-76
2021/07/25 11:28:56;;;;;;;3.23;2.10;;;;;;;;;;5055792;28;20908;-74
2021/07/25 11:31:33;;;;;;;3.00;1.93;;;;;;;;;;5056053;28;20412;-77
2021/07/25 11:33:59;;;;;;;3.30;1.63;;;;;;;;;;5054274;28;20423;-74
2021/07/25 11:36:25;;;;;;;2.57;2.00;;;;;;;;;;5055899;28;20767;-77
2021/07/25 11:38:59;;;;;;;2.73;2.00;;;;;;;;;;5055653;28;20412;-76
2021/07/25 11:41:32;;;;;;;3.47;2.27;;;;;;;;;;5055547;28;20814;-77
2021/07/25 11:44:02;;;;;;;2.67;2.10;;;;;;;;;;5055247;28;20407;-75
2021/07/25 11:46:35;;;;;;;2.70;1.97;;;;;;;;;;5055881;28;20396;-77
2021/07/25 11:49:03;;;;;;;4.20;2.20;;;;;;;;;;5056007;28;20440;-75
2021/07/25 11:51:29;;;;;;;3.10;2.20;;;;;;;;;;5056362;28;20775;-77
2021/07/25 11:53:55;;;;;;;2.13;1.70;;;;;;;;;;5055466;28;20415;-74
2021/07/25 11:56:21;;;;;;;3.50;1.90;;;;;;;;;;5054433;28;20408;-77
2021/07/25 11:59:13;;;;;;;2.27;1.80;;;;;;;;;;5055432;28;20915;-78
2021/07/25 12:01:39;;;;;;;1.93;1.70;;;;;;;;;;5052594;28;20479;-78
2021/07/25 12:04:17;;;;;;;3.70;2.07;;;;;;;;;;5054812;28;20424;-76
2021/07/25 12:06:43;;;;;;;2.20;1.77;;;;;;;;;;5055334;28;20833;-77
2021/07/25 12:09:09;;;;;;;2.03;1.83;;;;;;;;;;5054928;28;20416;-78
2021/07/25 12:11:36;;;;;;;2.73;2.23;;;;;;;;;;5055332;28;20415;-75
2021/07/25 12:14:02;;;;;;;2.70;2.10;;;;;;;;;;5054865;28;20419;-77
2021/07/25 12:16:43;;;;;;;2.23;1.70;;;;;;;;;;5055309;28;20488;-78
2021/07/25 12:19:16;;;;;;;2.70;1.67;;;;;;;;;;5055003;28;20408;-76
2021/07/25 12:21:42;;;;;;;5.07;2.40;;;;;;;;;;5054700;28;20819;-78
2021/07/25 12:24:27;;;;;;;3.40;2.03;;;;;;;;;;5054591;28;20411;-77
2021/07/25 12:26:53;;;;;;;2.60;1.70;;;;;;;;;;5054885;28;20479;-80
2021/07/25 12:29:38;;;;;;;3.77;1.93;;;;;;;;;;5054139;28;20424;-77
2021/07/25 12:32:24;;;;;;;3.57;2.10;;;;;;;;;;5051606;28;20412;-78
2021/07/25 12:34:55;;;;;;;4.17;1.93;;;;;;;;;;5051663;28;20447;-79
2021/07/25 12:37:27;;;;;;;4.17;1.90;;;;;;;;;;5053312;28;20408;-79
2021/07/25 12:40:20;;;;;;;3.00;2.10;;;;;;;;;;5053932;28;20451;-78
2021/07/25 12:42:58;;;;;;;2.00;1.60;;;;;;;;;;5031613;28;20417;-78
2021/07/25 12:45:25;;;;;;;2.40;1.50;;;;;;;;;;5034158;28;20582;-77
2021/07/25 12:48:12;;;;;;;2.13;1.80;;;;;;;;;;5034449;28;20412;-76
2021/07/25 12:50:58;;;;;;;2.43;1.70;;;;;;;;;;5034462;28;20514;-80
2021/07/25 12:53:24;;;;;;;2.40;1.73;;;;;;;;;;5033849;28;20465;-77
2021/07/25 12:55:51;;;;;;;3.47;1.57;;;;;;;;;;5032953;28;20452;-75
2021/07/25 12:58:17;;;;;;;2.87;1.57;;;;;;;;;;5033077;28;20921;-75
2021/07/25 13:06:51;;;;;;;2.93;1.80;;;;;;;;;;4992669;28;21047;-76
2021/07/25 13:09:18;;;;;;;2.00;1.80;;;;;;;;;;4992937;28;20429;-76
2021/07/25 13:11:44;;;;;;;1.67;1.47;;;;;;;;;;5017341;28;20417;-78
2021/07/25 13:14:11;;;;;;;1.83;1.40;;;;;;;;;;5033711;28;20436;-76
2021/07/25 13:16:38;;;;;;;4.73;1.83;;;;;;;;;;5033700;28;20412;-77
2021/07/25 13:19:05;;;;;;;2.73;1.60;;;;;;;;;;5032720;28;20425;-77
2021/07/25 13:21:31;;;;;;;2.27;1.90;;;;;;;;;;5033872;28;20571;-78
2021/07/25 13:23:58;;;;;;;1.90;1.57;;;;;;;;;;5033586;28;20417;-79
2021/07/25 13:26:24;;;;;;;1.60;1.50;;;;;;;;;;5034033;28;20406;-77
2021/07/25 13:28:50;;;;;;;2.60;1.70;;;;;;;;;;5033896;28;20441;-76
2021/07/25 13:31:16;;;;;;;2.20;2.00;;;;;;;;;;5033697;28;20972;-77
2021/07/25 13:33:42;;;;;;;3.00;1.77;;;;;;;;;;5033560;28;20488;-77
2021/07/25 13:36:09;;;;;;;2.87;1.83;;;;;;;;;;5033761;28;20432;-77
2021/07/25 13:38:37;;;;;;;2.33;1.63;;;;;;;;;;5033702;28;20500;-75
2021/07/25 13:41:03;;;;;;;3.70;1.80;;;;;;;;;;5033513;28;20971;-75
2021/07/25 13:43:29;;;;;;;4.77;2.07;;;;;;;;;;5034198;28;20443;-76
2021/07/25 13:45:58;;;;;;;2.73;1.97;;;;;;;;;;5033825;28;20798;-74
2021/07/25 13:48:34;;;;;;;2.07;1.63;;;;;;;;;;5032577;28;20401;-76
2021/07/25 13:51:03;;;;;;;3.50;1.93;;;;;;;;;;5033989;28;20405;-75
2021/07/25 13:53:30;;;;;;;1.97;1.53;;;;;;;;;;5033137;28;20413;-75
2021/07/25 13:55:57;;;;;;;2.10;1.60;;;;;;;;;;5033206;28;20460;-75
2021/07/25 13:58:23;;;;;;;3.77;1.50;;;;;;;;;;5033455;28;20408;-76
2021/07/25 14:00:49;;;;;;;2.33;1.83;;;;;;;;;;5033202;28;20475;-76
2021/07/25 14:03:15;;;;;;;2.10;1.90;;;;;;;;;;5033061;28;20443;-74
2021/07/25 14:05:41;;;;;;;3.83;2.00;;;;;;;;;;5033009;28;20452;-75
2021/07/25 14:08:07;;;;;;;2.50;2.23;;;;;;;;;;5033049;28;20416;-75
2021/07/25 14:10:34;;;;;;;2.40;2.10;;;;;;;;;;5034174;28;20506;-76
2021/07/25 14:13:00;;;;;;;3.03;1.67;;;;;;;;;;5037707;28;20420;-75
2021/07/25 14:15:26;;;;;;;3.10;1.60;;;;;;;;;;5052530;28;20424;-75
2021/07/25 14:17:53;;;;;;;1.60;1.37;;;;;;;;;;5052780;28;20412;-75
2021/07/25 14:20:22;;;;;;;3.33;2.00;;;;;;;;;;5053106;28;20455;-76
2021/07/25 14:22:49;;;;;;;2.80;1.90;;;;;;;;;;5052812;28;20490;-76
2021/07/25 14:25:15;;;;;;;3.73;2.30;;;;;;;;;;5052812;28;20416;-76
2021/07/25 14:27:42;;;;;;;3.00;1.67;;;;;;;;;;5052985;28;20896;-76
2021/07/25 14:30:08;;;;;;;2.80;2.00;;;;;;;;;;5052716;28;20468;-75
2021/07/25 14:32:35;;;;;;;2.57;1.80;;;;;;;;;;5051541;28;21006;-75
2021/07/25 14:35:02;;;;;;;4.13;2.00;;;;;;;;;;5052530;28;20431;-76
2021/07/25 14:37:28;;;;;;;2.60;2.17;;;;;;;;;;5052999;28;20479;-76
2021/07/25 14:39:54;;;;;;;3.00;1.67;;;;;;;;;;5051527;28;20597;-76
2021/07/25 14:42:20;;;;;;;1.80;1.63;;;;;;;;;;5052761;28;20408;-76
2021/07/25 14:44:46;;;;;;;5.47;2.00;;;;;;;;;;5052283;28;20459;-76
2021/07/25 14:47:12;;;;;;;2.63;2.10;;;;;;;;;;5052998;28;20448;-75
2021/07/25 14:49:38;;;;;;;2.73;2.30;;;;;;;;;;5052755;28;20407;-76